createdAt,value
2023-01-04T00:06:26.467Z,89.96
2023-01-04T00:08:58.918Z,89.91
2023-01-04T00:11:37.425Z,89.97
2023-01-04T00:14:12.184Z,90.03
2023-01-04T00:18:38.489Z,90.22
2023-01-04T00:21:19.556Z,90.77
2023-01-04T00:23:54.113Z,90.79
2023-01-04T00:27:15.472Z,91.21
2023-01-04T00:34:20.707Z,91.36
2023-01-04T00:36:53.176Z,91.52
2023-01-04T00:43:52.619Z,91.35
2023-01-04T00:47:01.853Z,91.41
2023-01-04T00:49:40.589Z,91.30
2023-01-04T00:52:13.330Z,91.18
2023-01-04T00:55:00.743Z,91.34
2023-01-04T00:57:33.392Z,91.48
2023-01-04T01:09:00.648Z,91.07
2023-01-04T01:12:06.525Z,91.16
2023-01-04T01:24:05.843Z,91.23
2023-01-04T01:31:02.376Z,91.14
2023-01-04T01:34:20.567Z,91.03
2023-01-04T01:37:13.472Z,90.94
2023-01-04T01:39:46.868Z,91.13
2023-01-04T01:42:26.243Z,91.28
2023-01-04T01:49:50.601Z,90.92
2023-01-04T02:01:28.590Z,91.14
2023-01-04T02:09:07.948Z,90.82
2023-01-04T02:12:21.123Z,90.37
2023-01-04T02:14:53.971Z,90.65
2023-01-04T02:17:57.179Z,90.80
2023-01-04T02:25:14.559Z,90.62
2023-01-04T02:37:25.130Z,91.68
2023-01-04T02:52:55.954Z,91.86
2023-01-04T02:55:39.176Z,91.65
2023-01-04T03:03:38.003Z,91.89
2023-01-04T03:10:41.874Z,91.55
2023-01-04T03:13:29.968Z,91.56
2023-01-04T03:20:24.386Z,91.79
2023-01-04T03:24:05.161Z,91.93
2023-01-04T03:31:34.069Z,91.51
2023-01-04T03:52:33.404Z,91.06
2023-01-04T04:04:28.052Z,91.37
2023-01-04T04:19:15.214Z,93.24
2023-01-04T04:21:47.715Z,93.84
2023-01-04T04:24:27.832Z,93.48
2023-01-04T04:27:00.635Z,93.28
2023-01-04T04:38:44.749Z,93.96
2023-01-04T04:45:29.819Z,94.63
2023-01-04T04:51:22.593Z,95.23
2023-01-04T04:53:55.800Z,95.21
2023-01-04T04:56:28.717Z,95.37
2023-01-04T05:00:04.744Z,95.06
2023-01-04T05:03:25.120Z,95.13
2023-01-04T05:05:57.966Z,95.04
2023-01-04T05:08:37.122Z,95.12
2023-01-04T05:11:11.227Z,95.22
2023-01-04T05:13:43.700Z,95.27
2023-01-04T05:16:22.500Z,95.63
2023-01-04T05:18:54.934Z,95.80
2023-01-04T05:21:33.482Z,95.92
2023-01-04T05:24:06.788Z,95.69
2023-01-04T05:26:45.500Z,95.54
2023-01-04T05:36:43.577Z,95.47
2023-01-04T05:39:17.960Z,95.59
2023-01-04T05:47:14.536Z,96.00
2023-01-04T05:54:20.899Z,95.89
2023-01-04T05:57:44.542Z,95.69
2023-01-04T06:00:32.350Z,95.57
2023-01-04T06:03:05.024Z,95.57
2023-01-04T06:06:07.932Z,95.49
2023-01-04T06:08:46.625Z,95.55
2023-01-04T06:11:23.989Z,95.75
2023-01-04T06:14:54.569Z,95.82
2023-01-04T06:17:27.042Z,96.16
2023-01-04T06:20:07.289Z,95.60
2023-01-04T06:22:40.750Z,96.07
2023-01-04T06:25:13.784Z,95.82
2023-01-04T06:28:54.152Z,95.42
2023-01-04T06:31:26.788Z,95.72
2023-01-04T06:38:57.944Z,96.10
2023-01-04T06:41:37.056Z,96.10
2023-01-04T06:44:10.133Z,95.88
2023-01-04T06:46:42.625Z,95.78
2023-01-04T06:49:56.425Z,95.84
2023-01-04T06:52:29.325Z,96.13
2023-01-04T06:55:01.701Z,95.97
2023-01-04T07:06:24.568Z,96.19
2023-01-04T07:08:58.192Z,96.21
2023-01-04T07:11:37.862Z,96.07
2023-01-04T07:14:10.475Z,96.15
2023-01-04T07:17:17.939Z,96.59
2023-01-04T07:20:40.292Z,96.69
2023-01-04T07:23:48.973Z,96.95
2023-01-04T07:30:33.271Z,97.42
2023-01-04T07:33:06.294Z,97.30
2023-01-04T07:35:53.620Z,97.46
2023-01-04T07:38:27.677Z,97.52
2023-01-04T07:41:00.444Z,97.59
2023-01-04T07:44:30.850Z,97.55
2023-01-04T07:47:03.682Z,97.93
2023-01-04T07:49:36.138Z,98.28
2023-01-04T07:57:03.019Z,98.18
2023-01-04T07:59:36.292Z,98.02
2023-01-04T08:02:11.307Z,98.18
2023-01-04T08:05:00.550Z,98.31
2023-01-04T08:07:33.039Z,98.31
2023-01-04T08:14:34.807Z,98.56
2023-01-04T08:17:07.295Z,98.60
2023-01-04T08:24:25.001Z,99.60
2023-01-04T08:26:57.896Z,100.00
2023-01-04T08:31:22.132Z,99.17
2023-01-04T08:33:59.740Z,96.60
2023-01-04T08:40:59.744Z,94.48
2023-01-04T08:43:38.015Z,93.70
2023-01-04T08:46:27.262Z,96.34
2023-01-04T08:48:59.667Z,92.72
2023-01-04T08:56:35.295Z,87.98
2023-01-04T08:59:08.626Z,88.22
2023-01-04T09:01:47.851Z,86.93
2023-01-04T09:05:34.877Z,87.85
2023-01-04T09:08:08.199Z,79.08
2023-01-04T09:10:42.110Z,80.09
2023-01-04T09:13:14.439Z,81.85
2023-01-04T09:24:37.781Z,72.38
2023-01-04T09:27:12.444Z,74.45
2023-01-04T09:30:39.842Z,64.74
2023-01-04T09:33:12.180Z,64.61
2023-01-04T09:35:51.245Z,64.83
2023-01-04T09:38:23.834Z,66.34
2023-01-04T09:45:25.045Z,66.10
2023-01-04T10:01:32.622Z,65.43
2023-01-04T10:27:29.527Z,63.37
2023-01-04T10:35:21.667Z,65.02
2023-01-04T10:55:31.151Z,64.62
2023-01-04T11:02:34.782Z,64.72
2023-01-04T11:09:26.855Z,65.02
2023-01-04T11:12:48.745Z,65.62
2023-01-04T11:15:22.106Z,65.70
2023-01-04T11:26:10.255Z,66.64
2023-01-04T11:33:54.184Z,67.48
2023-01-04T11:41:45.529Z,68.16
2023-01-04T11:49:03.723Z,69.30
2023-01-04T11:55:46.102Z,70.21
2023-01-04T11:58:46.514Z,70.49
2023-01-04T12:05:50.015Z,71.08
2023-01-04T12:08:50.616Z,71.16
2023-01-04T12:24:32.767Z,73.23
2023-01-04T12:28:49.121Z,73.62
2023-01-04T12:32:18.681Z,74.22
2023-01-04T12:43:57.194Z,75.91
2023-01-04T12:51:32.661Z,76.19
2023-01-04T12:58:05.071Z,76.63
2023-01-04T13:01:33.131Z,76.28
2023-01-04T13:17:28.025Z,77.02
2023-01-04T13:25:39.637Z,77.53
2023-01-04T13:29:33.261Z,77.35
2023-01-04T13:59:06.031Z,77.58
2023-01-04T14:02:36.541Z,77.82
2023-01-04T14:09:54.027Z,78.00
2023-01-04T14:22:16.895Z,78.60
2023-01-04T14:25:09.131Z,78.76
2023-01-04T14:29:42.545Z,79.00
2023-01-04T14:32:14.915Z,79.14
2023-01-04T14:34:47.285Z,79.46
2023-01-04T14:46:34.003Z,80.48
2023-01-04T14:53:18.815Z,80.44
2023-01-04T14:56:39.721Z,80.48
2023-01-04T14:59:12.318Z,80.95
2023-01-04T15:01:44.937Z,81.57
2023-01-04T15:04:17.522Z,81.89
2023-01-04T15:06:56.474Z,82.46
2023-01-04T15:09:29.534Z,82.25
2023-01-04T15:12:01.983Z,82.09
2023-01-04T15:14:34.827Z,82.92
2023-01-04T15:17:07.203Z,83.33
2023-01-04T15:19:39.793Z,83.72
2023-01-04T15:22:12.080Z,84.43
2023-01-04T15:24:44.757Z,84.83
2023-01-04T15:27:24.382Z,83.52
2023-01-04T15:29:59.967Z,84.03
2023-01-04T15:32:35.338Z,83.91
2023-01-04T15:35:10.902Z,84.87
2023-01-04T15:37:43.199Z,84.71
2023-01-04T15:40:26.653Z,85.07
2023-01-04T15:43:01.713Z,85.25
2023-01-04T15:45:38.913Z,86.81
2023-01-04T15:48:13.611Z,87.07
2023-01-04T15:50:46.260Z,88.34
2023-01-04T15:53:28.591Z,87.88
2023-01-04T15:56:09.563Z,88.39
2023-01-04T15:58:43.211Z,90.17
2023-01-04T16:01:17.103Z,90.33
2023-01-04T16:03:53.533Z,89.77
2023-01-04T16:06:27.231Z,90.01
2023-01-04T16:09:01.997Z,90.73
2023-01-04T16:11:35.154Z,90.13
2023-01-04T16:14:08.249Z,90.99
2023-01-04T16:16:40.865Z,91.56
2023-01-04T16:19:13.233Z,90.46
2023-01-04T16:21:45.617Z,91.00
2023-01-04T16:24:53.290Z,92.37
2023-01-04T16:27:11.625Z,91.12
2023-01-04T16:29:44.157Z,93.03
2023-01-04T16:32:16.549Z,92.45
2023-01-04T16:34:49.836Z,92.09
2023-01-04T16:37:22.730Z,94.52
2023-01-04T16:40:10.611Z,93.84
2023-01-04T16:42:43.661Z,94.33
2023-01-04T16:45:16.911Z,93.51
2023-01-04T16:47:51.593Z,94.09
2023-01-04T16:50:28.769Z,93.42
2023-01-04T16:53:01.318Z,93.62
2023-01-04T16:55:33.835Z,95.81
2023-01-04T16:58:09.877Z,95.62
2023-01-04T17:00:42.707Z,94.89
2023-01-04T17:03:15.087Z,95.32
2023-01-04T17:05:47.367Z,95.15
2023-01-04T17:08:26.755Z,94.88
2023-01-04T17:11:20.711Z,94.57
2023-01-04T17:13:52.110Z,94.50
2023-01-04T17:16:28.336Z,95.75
2023-01-04T17:19:11.387Z,95.93
2023-01-04T17:21:46.292Z,96.14
2023-01-04T17:24:27.775Z,96.49
2023-01-04T17:27:00.875Z,96.30
2023-01-04T17:29:36.354Z,96.57
2023-01-04T17:32:11.796Z,96.91
2023-01-04T17:34:44.515Z,97.54
2023-01-04T17:37:16.882Z,97.18
2023-01-04T17:40:03.758Z,97.53
2023-01-04T17:42:45.117Z,97.99
2023-01-04T17:45:17.531Z,97.61
2023-01-04T17:47:50.337Z,97.49
2023-01-04T17:50:22.754Z,96.74
2023-01-04T17:52:55.162Z,96.34
2023-01-04T17:55:27.743Z,97.35
2023-01-04T17:58:02.335Z,97.50
2023-01-04T18:00:46.237Z,96.68
2023-01-04T18:03:18.594Z,96.89
2023-01-04T18:06:24.487Z,96.30
2023-01-04T18:08:58.159Z,97.01
2023-01-04T18:11:31.500Z,97.30
2023-01-04T18:14:07.933Z,96.79
2023-01-04T18:16:59.436Z,96.62
2023-01-04T18:19:34.517Z,96.22
2023-01-04T18:22:07.254Z,96.11
2023-01-04T18:24:39.987Z,95.73
2023-01-04T18:27:23.753Z,96.79
2023-01-04T18:30:00.100Z,97.15
2023-01-04T18:32:33.038Z,97.03
2023-01-04T18:35:05.612Z,96.42
2023-01-04T18:37:38.562Z,96.15
2023-01-04T18:40:14.568Z,96.97
2023-01-04T18:42:57.979Z,97.12
2023-01-04T18:45:30.387Z,96.56
2023-01-04T18:48:03.058Z,96.41
2023-01-04T18:50:35.425Z,96.45
2023-01-04T18:53:08.027Z,96.29
2023-01-04T18:55:43.019Z,96.49
2023-01-04T18:58:15.361Z,96.48
2023-01-04T19:00:47.619Z,96.79
2023-01-04T19:03:20.240Z,96.85
2023-01-04T19:05:52.572Z,96.95
2023-01-04T19:08:27.236Z,96.69
2023-01-04T19:10:59.815Z,97.13
2023-01-04T19:13:32.993Z,97.64
2023-01-04T19:16:08.360Z,97.18
2023-01-04T19:18:43.081Z,96.82
2023-01-04T19:21:19.879Z,96.90
2023-01-04T19:23:54.834Z,97.34
2023-01-04T19:27:03.238Z,97.47
2023-01-04T19:29:38.605Z,97.00
2023-01-04T19:32:11.104Z,97.33
2023-01-04T19:34:43.575Z,96.93
2023-01-04T19:37:15.937Z,96.94
2023-01-04T19:39:51.457Z,96.97
2023-01-04T19:42:56.120Z,96.65
2023-01-04T19:46:09.072Z,96.57
2023-01-04T19:52:20.491Z,96.82
2023-01-04T20:04:18.691Z,96.74
2023-01-04T20:12:08.885Z,97.32
2023-01-04T20:14:48.096Z,97.56
2023-01-04T20:17:20.670Z,97.19
2023-01-04T20:20:02.374Z,97.02
2023-01-04T20:23:25.823Z,97.19
2023-01-04T20:26:47.792Z,97.22
2023-01-04T20:34:09.718Z,98.14
2023-01-04T20:36:48.683Z,98.45
2023-01-04T20:39:21.047Z,98.73
2023-01-04T20:50:58.936Z,99.34
2023-01-04T20:53:31.422Z,99.61
2023-01-04T20:59:59.733Z,99.40
2023-01-04T21:03:36.557Z,99.61
2023-01-04T21:13:58.368Z,99.52
2023-01-04T21:16:30.774Z,99.68
2023-01-04T21:19:09.930Z,99.75
2023-01-04T21:21:42.541Z,99.72
2023-01-04T21:24:20.831Z,99.63
2023-01-04T21:31:47.089Z,99.86
2023-01-04T21:34:28.112Z,100.00
2023-01-04T21:37:49.864Z,99.97
2023-01-04T21:40:28.889Z,100.00
2023-01-04T21:48:18.537Z,100.00
2023-01-04T21:50:59.705Z,99.97
2023-01-04T21:54:13.671Z,99.99
2023-01-04T21:56:46.538Z,99.92
2023-01-04T21:59:25.526Z,99.86
2023-01-04T22:01:57.971Z,100.00
2023-01-04T22:08:38.949Z,99.30
2023-01-04T22:11:12.469Z,99.07
2023-01-04T22:18:27.600Z,98.90
2023-01-04T22:24:53.203Z,98.55
2023-01-04T22:27:25.510Z,98.44
2023-01-04T22:29:58.955Z,98.21
2023-01-04T22:32:31.659Z,98.22
2023-01-04T22:35:04.011Z,97.91
2023-01-04T22:37:43.034Z,97.70
2023-01-04T22:40:16.772Z,97.67
2023-01-04T22:47:19.698Z,97.56
2023-01-04T22:49:52.100Z,97.50
2023-01-04T22:52:24.635Z,97.42
2023-01-04T22:56:18.973Z,97.33
2023-01-04T22:59:50.253Z,97.72
2023-01-04T23:02:22.715Z,97.89
2023-01-04T23:09:49.030Z,97.94
2023-01-04T23:12:49.564Z,98.11
2023-01-04T23:15:23.181Z,98.55
2023-01-04T23:17:55.862Z,98.58
2023-01-04T23:21:24.389Z,98.64
2023-01-04T23:28:30.581Z,99.21
2023-01-04T23:35:30.721Z,99.76
2023-01-04T23:38:09.196Z,99.95
2023-01-04T23:40:41.591Z,99.92
2023-01-04T23:47:16.025Z,100.00
2023-01-04T23:50:18.812Z,100.00
2023-01-04T23:57:17.767Z,100.00
2023-01-04T23:59:50.287Z,100.00
